ABD209 BIKF-ENGM
Flight info
| Callsign | ABD209 |
|---|---|
| Flight time | 2h 22m |
| Altitude | 35000 |
| Route | LUTER2A LUTER DCT 64N010W DCT ISVIG/N0469F350 DCT BELGU |
| Aircraft | A306/H-SDE3FGHIRWY/LB1 |
Departure
| Time | 2026-05-05 20:21 |
|---|---|
| Airport | Keflavik International Airport (BIKF) |
Arrival
| Time | 2026-05-05 22:44 |
|---|---|
| Airport | Oslo-Gardermoen International Airport (ENGM) |
| Time | Latitude | Longitude | Altitude | Speed | Heading |
|---|---|---|---|---|---|
| 2026-05-05 19:44 | 63.99256 | -22.61263 | 160 ft | 0 kts | 90° |
| 2026-05-05 20:04 | 63.99256 | -22.61267 | 157 ft | 2 kts | 90° |
| 2026-05-05 20:05 | 63.99256 | -22.61326 | 160 ft | 4 kts | 90° |
| 2026-05-05 20:05 | 63.99256 | -22.61376 | 158 ft | 3 kts | 91° |
| 2026-05-05 20:05 | 63.99261 | -22.61427 | 156 ft | 4 kts | 142° |
| 2026-05-05 20:05 | 63.99274 | -22.61440 | 155 ft | 3 kts | 179° |
| 2026-05-05 20:06 | 63.99253 | -22.61440 | 156 ft | 4 kts | 179° |
| 2026-05-05 20:06 | 63.99249 | -22.61440 | 157 ft | 3 kts | 179° |
| 2026-05-05 20:13 | 63.99246 | -22.61440 | 157 ft | 2 kts | 179° |
| 2026-05-05 20:13 | 63.99211 | -22.61430 | 160 ft | 7 kts | 164° |
| 2026-05-05 20:13 | 63.99181 | -22.61348 | 161 ft | 7 kts | 108° |
| 2026-05-05 20:14 | 63.99169 | -22.61200 | 165 ft | 8 kts | 113° |
| 2026-05-05 20:14 | 63.99103 | -22.61128 | 171 ft | 17 kts | 173° |
| 2026-05-05 20:14 | 63.98991 | -22.61125 | 170 ft | 17 kts | 180° |
| 2026-05-05 20:14 | 63.98865 | -22.61123 | 170 ft | 19 kts | 179° |
| 2026-05-05 20:15 | 63.98729 | -22.61125 | 169 ft | 21 kts | 180° |
| 2026-05-05 20:15 | 63.98583 | -22.61123 | 171 ft | 22 kts | 179° |
| 2026-05-05 20:15 | 63.98428 | -22.61123 | 166 ft | 24 kts | 180° |
| 2026-05-05 20:15 | 63.98261 | -22.61124 | 168 ft | 21 kts | 179° |
| 2026-05-05 20:16 | 63.98160 | -22.61088 | 166 ft | 12 kts | 139° |
| 2026-05-05 20:16 | 63.98152 | -22.61061 | 168 ft | 0 kts | 121° |
| 2026-05-05 20:17 | 63.98146 | -22.61041 | 169 ft | 5 kts | 121° |
| 2026-05-05 20:17 | 63.98093 | -22.60948 | 173 ft | 16 kts | 165° |
| 2026-05-05 20:17 | 63.97961 | -22.60936 | 175 ft | 20 kts | 178° |
| 2026-05-05 20:18 | 63.97821 | -22.60939 | 176 ft | 21 kts | 181° |
| 2026-05-05 20:18 | 63.97668 | -22.60943 | 175 ft | 23 kts | 180° |
| 2026-05-05 20:18 | 63.97494 | -22.60941 | 172 ft | 27 kts | 181° |
| 2026-05-05 20:18 | 63.97299 | -22.60945 | 167 ft | 29 kts | 177° |
| 2026-05-05 20:19 | 63.97120 | -22.60941 | 161 ft | 25 kts | 179° |
| 2026-05-05 20:19 | 63.96934 | -22.60936 | 154 ft | 28 kts | 180° |
| 2026-05-05 20:19 | 63.96727 | -22.60935 | 146 ft | 29 kts | 180° |
| 2026-05-05 20:19 | 63.96544 | -22.60927 | 141 ft | 19 kts | 179° |
| 2026-05-05 20:20 | 63.96464 | -22.60780 | 145 ft | 15 kts | 97° |
| 2026-05-05 20:20 | 63.96473 | -22.60586 | 150 ft | 10 kts | 54° |
| 2026-05-05 20:20 | 63.96527 | -22.60553 | 153 ft | 7 kts | 359° |
| 2026-05-05 20:20 | 63.96684 | -22.60547 | 159 ft | 52 kts | 1° |
| 2026-05-05 20:21 | 63.97306 | -22.60542 | 175 ft | 123 kts | 1° |
| 2026-05-05 20:21 | 63.98346 | -22.60564 | 480 ft | 167 kts | 1° |
| 2026-05-05 20:21 | 63.99566 | -22.60631 | 1458 ft | 181 kts | 4° |
| 2026-05-05 20:21 | 64.00855 | -22.60630 | 2381 ft | 189 kts | 5° |
| 2026-05-05 20:22 | 64.02190 | -22.60590 | 3346 ft | 195 kts | 5° |
| 2026-05-05 20:22 | 64.03566 | -22.60532 | 4502 ft | 198 kts | 8° |
| 2026-05-05 20:22 | 64.04879 | -22.59798 | 5811 ft | 192 kts | 28° |
| 2026-05-05 20:22 | 64.05915 | -22.57805 | 6909 ft | 206 kts | 53° |
| 2026-05-05 20:23 | 64.06430 | -22.54502 | 7470 ft | 240 kts | 83° |
| 2026-05-05 20:23 | 64.06444 | -22.50546 | 8292 ft | 254 kts | 90° |
| 2026-05-05 20:23 | 64.06384 | -22.46468 | 9378 ft | 259 kts | 90° |
| 2026-05-05 20:23 | 64.06353 | -22.42348 | 10317 ft | 268 kts | 88° |
| 2026-05-05 20:24 | 64.06435 | -22.37912 | 10769 ft | 291 kts | 85° |
| 2026-05-05 20:24 | 64.06581 | -22.33111 | 11093 ft | 314 kts | 84° |
| 2026-05-05 20:24 | 64.06750 | -22.27969 | 11400 ft | 335 kts | 84° |
| 2026-05-05 20:24 | 64.06929 | -22.22506 | 11701 ft | 353 kts | 84° |
| 2026-05-05 20:25 | 64.07113 | -22.16811 | 12245 ft | 363 kts | 84° |
| 2026-05-05 20:25 | 64.07299 | -22.10999 | 12836 ft | 370 kts | 84° |
| 2026-05-05 20:25 | 64.07487 | -22.05069 | 13468 ft | 376 kts | 84° |
| 2026-05-05 20:25 | 64.07675 | -21.99048 | 14109 ft | 382 kts | 84° |
| 2026-05-05 20:26 | 64.07862 | -21.93009 | 14703 ft | 387 kts | 84° |
| 2026-05-05 20:26 | 64.08050 | -21.86832 | 15301 ft | 392 kts | 84° |
| 2026-05-05 20:26 | 64.08238 | -21.80582 | 15901 ft | 396 kts | 84° |
| 2026-05-05 20:26 | 64.08425 | -21.74245 | 16538 ft | 400 kts | 84° |
| 2026-05-05 20:27 | 64.08611 | -21.67867 | 17239 ft | 402 kts | 85° |
| 2026-05-05 20:27 | 64.08794 | -21.61474 | 17893 ft | 404 kts | 85° |
| 2026-05-05 20:27 | 64.08974 | -21.55092 | 18408 ft | 410 kts | 85° |
| 2026-05-05 20:27 | 64.09156 | -21.48521 | 18862 ft | 415 kts | 85° |
| 2026-05-05 20:28 | 64.09336 | -21.41909 | 19371 ft | 417 kts | 85° |
| 2026-05-05 20:28 | 64.09515 | -21.35243 | 19776 ft | 422 kts | 85° |
| 2026-05-05 20:28 | 64.09692 | -21.28503 | 20263 ft | 425 kts | 85° |
| 2026-05-05 20:28 | 64.09867 | -21.21733 | 20704 ft | 428 kts | 85° |
| 2026-05-05 20:29 | 64.10041 | -21.14880 | 21113 ft | 432 kts | 85° |
| 2026-05-05 20:29 | 64.10210 | -21.08076 | 21568 ft | 434 kts | 85° |
| 2026-05-05 20:29 | 64.10379 | -21.01136 | 21952 ft | 439 kts | 85° |
| 2026-05-05 20:29 | 64.10546 | -20.94137 | 22341 ft | 442 kts | 86° |
| 2026-05-05 20:30 | 64.10713 | -20.87026 | 22456 ft | 453 kts | 86° |
| 2026-05-05 20:30 | 64.10880 | -20.79774 | 22785 ft | 457 kts | 86° |
| 2026-05-05 20:30 | 64.11043 | -20.72485 | 23217 ft | 459 kts | 86° |
| 2026-05-05 20:30 | 64.11202 | -20.65238 | 23630 ft | 462 kts | 86° |
| 2026-05-05 20:31 | 64.11359 | -20.57860 | 23975 ft | 465 kts | 86° |
| 2026-05-05 20:31 | 64.11514 | -20.50437 | 24264 ft | 467 kts | 86° |
| 2026-05-05 20:31 | 64.11665 | -20.42987 | 24548 ft | 470 kts | 86° |
| 2026-05-05 20:31 | 64.11817 | -20.35469 | 24826 ft | 473 kts | 86° |
| 2026-05-05 20:32 | 64.11984 | -20.27923 | 25102 ft | 475 kts | 86° |
| 2026-05-05 20:32 | 64.12161 | -20.20336 | 25370 ft | 478 kts | 86° |
| 2026-05-05 20:32 | 64.12338 | -20.12810 | 25627 ft | 481 kts | 85° |
| 2026-05-05 20:32 | 64.12515 | -20.05139 | 25948 ft | 482 kts | 85° |
| 2026-05-05 20:33 | 64.12685 | -19.97483 | 26318 ft | 481 kts | 85° |
| 2026-05-05 20:33 | 64.12852 | -19.89822 | 26603 ft | 482 kts | 86° |
| 2026-05-05 20:33 | 64.13014 | -19.82106 | 26785 ft | 486 kts | 86° |
| 2026-05-05 20:33 | 64.13171 | -19.74342 | 27019 ft | 488 kts | 86° |
| 2026-05-05 20:34 | 64.13325 | -19.66559 | 27260 ft | 490 kts | 86° |
| 2026-05-05 20:34 | 64.13472 | -19.58846 | 27574 ft | 490 kts | 86° |
| 2026-05-05 20:34 | 64.13617 | -19.51038 | 27918 ft | 489 kts | 86° |
| 2026-05-05 20:34 | 64.13757 | -19.43244 | 28226 ft | 490 kts | 86° |
| 2026-05-05 20:35 | 64.13894 | -19.35445 | 28556 ft | 490 kts | 86° |
| 2026-05-05 20:35 | 64.14028 | -19.27627 | 28875 ft | 490 kts | 86° |
| 2026-05-05 20:35 | 64.14155 | -19.19836 | 29309 ft | 488 kts | 86° |
| 2026-05-05 20:35 | 64.14278 | -19.12064 | 29689 ft | 488 kts | 86° |
| 2026-05-05 20:36 | 64.14397 | -19.04374 | 29960 ft | 489 kts | 86° |
| 2026-05-05 20:36 | 64.14513 | -18.96586 | 30262 ft | 490 kts | 86° |
| 2026-05-05 20:36 | 64.14626 | -18.88776 | 30526 ft | 490 kts | 86° |
| 2026-05-05 20:36 | 64.14735 | -18.80949 | 30791 ft | 491 kts | 86° |
| 2026-05-05 20:37 | 64.14839 | -18.73118 | 31069 ft | 491 kts | 86° |
| 2026-05-05 20:37 | 64.14905 | -18.67942 | 31251 ft | 491 kts | 86° |
| 2026-05-05 20:37 | 64.15031 | -18.57580 | 31626 ft | 491 kts | 86° |
| 2026-05-05 20:37 | 64.15121 | -18.49754 | 31905 ft | 491 kts | 86° |
| 2026-05-05 20:38 | 64.15209 | -18.41927 | 32195 ft | 491 kts | 86° |
| 2026-05-05 20:38 | 64.15291 | -18.34108 | 32562 ft | 489 kts | 86° |
| 2026-05-05 20:38 | 64.15369 | -18.26317 | 32860 ft | 489 kts | 86° |
| 2026-05-05 20:38 | 64.15444 | -18.18492 | 32996 ft | 493 kts | 86° |
| 2026-05-05 20:39 | 64.15517 | -18.10604 | 33185 ft | 495 kts | 86° |
| 2026-05-05 20:39 | 64.15584 | -18.02717 | 33508 ft | 494 kts | 86° |
| 2026-05-05 20:39 | 64.15646 | -17.94846 | 33839 ft | 494 kts | 86° |
| 2026-05-05 20:39 | 64.15703 | -17.87067 | 34141 ft | 494 kts | 87° |
| 2026-05-05 20:40 | 64.15757 | -17.79175 | 34397 ft | 494 kts | 87° |
| 2026-05-05 20:40 | 64.15806 | -17.71286 | 34642 ft | 494 kts | 87° |
| 2026-05-05 20:40 | 64.15851 | -17.63417 | 34899 ft | 493 kts | 87° |
| 2026-05-05 20:40 | 64.15891 | -17.55553 | 35164 ft | 493 kts | 87° |
| 2026-05-05 20:41 | 64.15928 | -17.47687 | 35233 ft | 492 kts | 87° |
| 2026-05-05 20:41 | 64.15988 | -17.32154 | 35239 ft | 488 kts | 87° |
| 2026-05-05 20:42 | 64.16032 | -17.16574 | 35240 ft | 487 kts | 88° |
| 2026-05-05 20:42 | 64.16060 | -17.01111 | 35240 ft | 488 kts | 88° |
| 2026-05-05 20:43 | 64.16071 | -16.85553 | 35247 ft | 488 kts | 88° |
| 2026-05-05 20:43 | 64.16064 | -16.69978 | 35246 ft | 488 kts | 88° |
| 2026-05-05 20:44 | 64.16042 | -16.54427 | 35226 ft | 488 kts | 88° |
| 2026-05-05 20:44 | 64.16003 | -16.38978 | 35227 ft | 488 kts | 88° |
| 2026-05-05 20:45 | 64.15913 | -16.15605 | 35229 ft | 488 kts | 88° |
| 2026-05-05 20:45 | 64.15833 | -16.00052 | 35236 ft | 488 kts | 89° |
| 2026-05-05 20:46 | 64.15736 | -15.84473 | 35227 ft | 487 kts | 89° |
| 2026-05-05 20:46 | 64.15623 | -15.69058 | 35227 ft | 486 kts | 89° |
| 2026-05-05 20:47 | 64.15493 | -15.53524 | 35223 ft | 486 kts | 89° |
| 2026-05-05 20:47 | 64.15347 | -15.37987 | 35218 ft | 488 kts | 89° |
| 2026-05-05 20:48 | 64.15184 | -15.22487 | 35219 ft | 489 kts | 89° |
| 2026-05-05 20:48 | 64.15004 | -15.06883 | 35221 ft | 489 kts | 90° |
| 2026-05-05 20:49 | 64.14807 | -14.91284 | 35216 ft | 488 kts | 90° |
| 2026-05-05 20:49 | 64.14595 | -14.75810 | 35216 ft | 488 kts | 90° |
| 2026-05-05 20:50 | 64.14405 | -14.62870 | 35216 ft | 488 kts | 90° |
| 2026-05-05 20:50 | 64.14118 | -14.44659 | 35216 ft | 488 kts | 90° |
| 2026-05-05 20:51 | 64.13855 | -14.29093 | 35226 ft | 488 kts | 90° |
| 2026-05-05 20:51 | 64.13578 | -14.13652 | 35216 ft | 487 kts | 90° |
| 2026-05-05 20:52 | 64.13333 | -14.00739 | 35216 ft | 487 kts | 91° |
| 2026-05-05 20:52 | 64.12973 | -13.82716 | 35211 ft | 487 kts | 91° |
| 2026-05-05 20:53 | 64.12701 | -13.69804 | 35208 ft | 487 kts | 91° |
| 2026-05-05 20:53 | 64.12359 | -13.54309 | 35205 ft | 487 kts | 91° |
| 2026-05-05 20:54 | 64.12000 | -13.38786 | 35209 ft | 487 kts | 91° |
| 2026-05-05 20:54 | 64.11628 | -13.23378 | 35204 ft | 487 kts | 91° |
| 2026-05-05 20:55 | 64.11236 | -13.07873 | 35200 ft | 487 kts | 91° |
| 2026-05-05 20:55 | 64.10829 | -12.92381 | 35193 ft | 487 kts | 91° |
| 2026-05-05 20:56 | 64.10404 | -12.76883 | 35197 ft | 487 kts | 91° |
| 2026-05-05 20:56 | 64.09966 | -12.61495 | 35188 ft | 487 kts | 92° |
| 2026-05-05 20:57 | 64.09510 | -12.46026 | 35184 ft | 487 kts | 92° |
| 2026-05-05 20:57 | 64.09036 | -12.30558 | 35177 ft | 486 kts | 92° |
| 2026-05-05 20:58 | 64.08550 | -12.15206 | 35175 ft | 486 kts | 92° |
| 2026-05-05 20:58 | 64.08045 | -11.99758 | 35166 ft | 487 kts | 92° |
| 2026-05-05 20:59 | 64.07524 | -11.84344 | 35182 ft | 487 kts | 92° |
| 2026-05-05 20:59 | 64.06990 | -11.69029 | 35163 ft | 486 kts | 93° |
| 2026-05-05 21:00 | 64.06436 | -11.53628 | 35162 ft | 485 kts | 93° |
| 2026-05-05 21:00 | 64.05867 | -11.38247 | 35160 ft | 486 kts | 93° |
| 2026-05-05 21:01 | 64.05281 | -11.22854 | 35156 ft | 486 kts | 93° |
| 2026-05-05 21:01 | 64.04682 | -11.07549 | 35142 ft | 486 kts | 93° |
| 2026-05-05 21:02 | 64.04063 | -10.92179 | 35135 ft | 485 kts | 94° |
| 2026-05-05 21:02 | 64.03434 | -10.76924 | 35139 ft | 485 kts | 94° |
| 2026-05-05 21:03 | 64.02783 | -10.61566 | 35125 ft | 485 kts | 94° |
| 2026-05-05 21:03 | 64.02117 | -10.46231 | 35128 ft | 485 kts | 94° |
| 2026-05-05 21:04 | 64.01435 | -10.30909 | 35126 ft | 485 kts | 94° |
| 2026-05-05 21:04 | 64.00741 | -10.15683 | 35121 ft | 485 kts | 94° |
| 2026-05-05 21:05 | 64.00023 | -10.00356 | 35115 ft | 486 kts | 95° |
| 2026-05-05 21:05 | 63.99124 | -9.85049 | 35110 ft | 486 kts | 97° |
| 2026-05-05 21:06 | 63.98122 | -9.69895 | 35102 ft | 486 kts | 97° |
| 2026-05-05 21:06 | 63.97100 | -9.54631 | 35102 ft | 486 kts | 97° |
| 2026-05-05 21:07 | 63.96088 | -9.39488 | 35108 ft | 486 kts | 97° |
| 2026-05-05 21:07 | 63.95059 | -9.24240 | 35098 ft | 486 kts | 97° |
| 2026-05-05 21:08 | 63.94017 | -9.09021 | 35083 ft | 486 kts | 97° |
| 2026-05-05 21:08 | 63.92964 | -8.93888 | 35087 ft | 486 kts | 98° |
| 2026-05-05 21:09 | 63.91888 | -8.78684 | 35087 ft | 487 kts | 98° |
| 2026-05-05 21:09 | 63.90796 | -8.63488 | 35079 ft | 487 kts | 98° |
| 2026-05-05 21:10 | 63.89689 | -8.48324 | 35078 ft | 486 kts | 98° |
| 2026-05-05 21:10 | 63.88565 | -8.33151 | 35070 ft | 486 kts | 98° |
| 2026-05-05 21:11 | 63.87433 | -8.18096 | 35070 ft | 487 kts | 98° |
| 2026-05-05 21:11 | 63.86278 | -8.02950 | 35070 ft | 486 kts | 98° |
| 2026-05-05 21:12 | 63.85107 | -7.87818 | 35070 ft | 486 kts | 99° |
| 2026-05-05 21:12 | 63.83926 | -7.72775 | 35053 ft | 487 kts | 99° |
| 2026-05-05 21:13 | 63.82721 | -7.57637 | 35062 ft | 488 kts | 99° |
| 2026-05-05 21:13 | 63.81498 | -7.42492 | 35051 ft | 488 kts | 99° |
| 2026-05-05 21:14 | 63.80270 | -7.27479 | 35051 ft | 488 kts | 99° |
| 2026-05-05 21:14 | 63.79015 | -7.12354 | 35040 ft | 488 kts | 99° |
| 2026-05-05 21:15 | 63.77747 | -6.97264 | 35050 ft | 488 kts | 100° |
| 2026-05-05 21:15 | 63.76469 | -6.82261 | 35033 ft | 489 kts | 100° |
| 2026-05-05 21:16 | 63.75165 | -6.67154 | 35035 ft | 489 kts | 100° |
| 2026-05-05 21:16 | 63.73847 | -6.52082 | 35034 ft | 489 kts | 100° |
| 2026-05-05 21:17 | 63.72513 | -6.37017 | 35025 ft | 489 kts | 101° |
| 2026-05-05 21:17 | 63.71171 | -6.22051 | 35028 ft | 489 kts | 101° |
| 2026-05-05 21:18 | 63.69804 | -6.07007 | 35018 ft | 489 kts | 101° |
| 2026-05-05 21:18 | 63.68423 | -5.91983 | 35019 ft | 488 kts | 101° |
| 2026-05-05 21:19 | 63.67034 | -5.77062 | 35006 ft | 489 kts | 101° |
| 2026-05-05 21:19 | 63.65621 | -5.62062 | 35010 ft | 489 kts | 101° |
| 2026-05-05 21:20 | 63.64194 | -5.47088 | 35001 ft | 488 kts | 101° |
| 2026-05-05 21:20 | 63.62759 | -5.32213 | 35010 ft | 489 kts | 102° |
| 2026-05-05 21:21 | 63.61297 | -5.17239 | 34998 ft | 489 kts | 102° |
| 2026-05-05 21:21 | 63.59820 | -5.02280 | 34999 ft | 489 kts | 102° |
| 2026-05-05 21:22 | 63.58328 | -4.87345 | 34990 ft | 489 kts | 102° |
| 2026-05-05 21:22 | 63.56830 | -4.72519 | 34991 ft | 489 kts | 102° |
| 2026-05-05 21:23 | 63.55308 | -4.57618 | 34986 ft | 489 kts | 102° |
| 2026-05-05 21:23 | 63.53770 | -4.42728 | 34987 ft | 489 kts | 103° |
| 2026-05-05 21:24 | 63.52214 | -4.27839 | 34983 ft | 490 kts | 103° |
| 2026-05-05 21:24 | 63.50644 | -4.12977 | 34983 ft | 489 kts | 103° |
| 2026-05-05 21:25 | 63.49069 | -3.98224 | 34976 ft | 489 kts | 103° |
| 2026-05-05 21:25 | 63.47468 | -3.83387 | 34976 ft | 490 kts | 103° |
| 2026-05-05 21:26 | 63.45850 | -3.68554 | 34978 ft | 490 kts | 103° |
| 2026-05-05 21:26 | 63.44229 | -3.53847 | 34975 ft | 490 kts | 104° |
| 2026-05-05 21:27 | 63.42581 | -3.39052 | 34976 ft | 490 kts | 104° |
| 2026-05-05 21:27 | 63.40917 | -3.24270 | 34965 ft | 490 kts | 104° |
| 2026-05-05 21:28 | 63.39240 | -3.09515 | 34958 ft | 490 kts | 104° |
| 2026-05-05 21:28 | 63.37554 | -2.94845 | 34958 ft | 491 kts | 104° |
| 2026-05-05 21:29 | 63.35840 | -2.80071 | 34958 ft | 491 kts | 104° |
| 2026-05-05 21:29 | 63.34122 | -2.65411 | 34955 ft | 491 kts | 105° |
| 2026-05-05 21:30 | 63.32378 | -2.50678 | 34958 ft | 491 kts | 105° |
| 2026-05-05 21:30 | 63.30618 | -2.35958 | 34950 ft | 491 kts | 105° |
| 2026-05-05 21:31 | 63.28857 | -2.21370 | 34950 ft | 491 kts | 105° |
| 2026-05-05 21:31 | 63.27067 | -2.06686 | 34946 ft | 491 kts | 105° |
| 2026-05-05 21:32 | 63.25263 | -1.92028 | 34943 ft | 491 kts | 105° |
| 2026-05-05 21:32 | 63.23444 | -1.77397 | 34946 ft | 491 kts | 105° |
| 2026-05-05 21:33 | 63.21621 | -1.62864 | 34951 ft | 491 kts | 106° |
| 2026-05-05 21:33 | 63.19773 | -1.48264 | 34941 ft | 491 kts | 106° |
| 2026-05-05 21:34 | 63.17906 | -1.33657 | 34948 ft | 492 kts | 106° |
| 2026-05-05 21:34 | 63.16024 | -1.19072 | 34942 ft | 492 kts | 106° |
| 2026-05-05 21:35 | 63.14141 | -1.04611 | 34941 ft | 492 kts | 106° |
| 2026-05-05 21:35 | 63.12228 | -0.90052 | 34933 ft | 492 kts | 107° |
| 2026-05-05 21:36 | 63.10296 | -0.75477 | 34955 ft | 495 kts | 107° |
| 2026-05-05 21:36 | 63.08671 | -0.63325 | 34956 ft | 496 kts | 107° |
| 2026-05-05 21:37 | 63.06702 | -0.48715 | 34952 ft | 496 kts | 107° |
| 2026-05-05 21:37 | 63.04719 | -0.34140 | 34950 ft | 496 kts | 107° |
| 2026-05-05 21:38 | 63.02733 | -0.19663 | 34954 ft | 496 kts | 107° |
| 2026-05-05 21:38 | 63.00721 | -0.05130 | 34961 ft | 496 kts | 108° |
| 2026-05-05 21:39 | 62.98823 | 0.09476 | 34961 ft | 496 kts | 105° |
| 2026-05-05 21:39 | 62.97028 | 0.24050 | 34961 ft | 496 kts | 105° |
| 2026-05-05 21:40 | 62.95203 | 0.38699 | 34962 ft | 496 kts | 106° |
| 2026-05-05 21:40 | 62.93361 | 0.53320 | 34961 ft | 496 kts | 106° |
| 2026-05-05 21:41 | 62.91512 | 0.67845 | 34965 ft | 496 kts | 106° |
| 2026-05-05 21:41 | 62.89635 | 0.82448 | 34966 ft | 496 kts | 106° |
| 2026-05-05 21:42 | 62.87757 | 0.96926 | 34970 ft | 496 kts | 107° |
| 2026-05-05 21:42 | 62.85852 | 1.11482 | 34970 ft | 496 kts | 107° |
| 2026-05-05 21:43 | 62.83931 | 1.26024 | 34974 ft | 496 kts | 107° |
| 2026-05-05 21:43 | 62.81996 | 1.40535 | 34960 ft | 496 kts | 107° |
| 2026-05-05 21:44 | 62.80057 | 1.54954 | 34969 ft | 498 kts | 107° |
| 2026-05-05 21:44 | 62.78082 | 1.69507 | 34973 ft | 500 kts | 108° |
| 2026-05-05 21:45 | 62.76088 | 1.84064 | 34972 ft | 500 kts | 108° |
| 2026-05-05 21:45 | 62.74080 | 1.98600 | 34971 ft | 500 kts | 108° |
| 2026-05-05 21:46 | 62.72070 | 2.13022 | 34973 ft | 500 kts | 108° |
| 2026-05-05 21:46 | 62.70033 | 2.27513 | 34971 ft | 500 kts | 108° |
| 2026-05-05 21:47 | 62.67978 | 2.42005 | 34967 ft | 500 kts | 108° |
| 2026-05-05 21:47 | 62.65920 | 2.56388 | 34973 ft | 500 kts | 108° |
| 2026-05-05 21:48 | 62.63834 | 2.70850 | 34972 ft | 500 kts | 109° |
| 2026-05-05 21:48 | 62.61734 | 2.85283 | 34969 ft | 500 kts | 109° |
| 2026-05-05 21:49 | 62.59631 | 2.99610 | 34972 ft | 500 kts | 109° |
| 2026-05-05 21:49 | 62.57501 | 3.14005 | 34972 ft | 500 kts | 109° |
| 2026-05-05 21:50 | 62.55360 | 3.28359 | 34972 ft | 500 kts | 109° |
| 2026-05-05 21:50 | 62.53199 | 3.42719 | 34964 ft | 500 kts | 109° |
| 2026-05-05 21:51 | 62.51036 | 3.56982 | 34969 ft | 500 kts | 109° |
| 2026-05-05 21:51 | 62.48849 | 3.71277 | 34960 ft | 500 kts | 110° |
| 2026-05-05 21:52 | 62.45536 | 3.92722 | 34975 ft | 502 kts | 110° |
| 2026-05-05 21:53 | 62.43312 | 4.06970 | 34972 ft | 503 kts | 110° |
| 2026-05-05 21:53 | 62.41061 | 4.21285 | 34972 ft | 503 kts | 110° |
| 2026-05-05 21:54 | 62.38795 | 4.35572 | 34975 ft | 503 kts | 110° |
| 2026-05-05 21:54 | 62.36529 | 4.49750 | 34973 ft | 503 kts | 110° |
| 2026-05-05 21:55 | 62.34231 | 4.64009 | 34977 ft | 503 kts | 111° |
| 2026-05-05 21:55 | 62.31921 | 4.78237 | 34980 ft | 503 kts | 111° |
| 2026-05-05 21:56 | 62.29612 | 4.92351 | 34978 ft | 503 kts | 111° |
| 2026-05-05 21:56 | 62.27273 | 5.06532 | 34977 ft | 503 kts | 111° |
| 2026-05-05 21:57 | 62.24917 | 5.20705 | 34976 ft | 503 kts | 111° |
| 2026-05-05 21:57 | 62.22561 | 5.34774 | 34975 ft | 503 kts | 111° |
| 2026-05-05 21:58 | 62.20173 | 5.48927 | 34973 ft | 503 kts | 111° |
| 2026-05-05 21:58 | 62.17791 | 5.62936 | 34967 ft | 503 kts | 112° |
| 2026-05-05 21:59 | 62.15380 | 5.77015 | 34968 ft | 503 kts | 112° |
| 2026-05-05 21:59 | 62.12953 | 5.91071 | 34965 ft | 503 kts | 112° |
| 2026-05-05 22:00 | 62.10512 | 6.05109 | 34962 ft | 503 kts | 112° |
| 2026-05-05 22:00 | 62.08056 | 6.19128 | 34959 ft | 504 kts | 112° |
| 2026-05-05 22:01 | 62.05596 | 6.33062 | 34976 ft | 505 kts | 112° |
| 2026-05-05 22:01 | 62.03103 | 6.47089 | 34979 ft | 506 kts | 112° |
| 2026-05-05 22:02 | 62.00597 | 6.61082 | 35020 ft | 505 kts | 113° |
| 2026-05-05 22:02 | 61.98087 | 6.74996 | 35023 ft | 506 kts | 113° |
| 2026-05-05 22:03 | 61.95550 | 6.88961 | 35021 ft | 505 kts | 113° |
| 2026-05-05 22:03 | 61.93002 | 7.02888 | 35015 ft | 505 kts | 113° |
| 2026-05-05 22:04 | 61.90437 | 7.16796 | 34997 ft | 505 kts | 113° |
| 2026-05-05 22:04 | 61.87865 | 7.30650 | 34990 ft | 507 kts | 114° |
| 2026-05-05 22:05 | 61.85283 | 7.44459 | 34968 ft | 507 kts | 114° |
| 2026-05-05 22:05 | 61.82672 | 7.58332 | 34966 ft | 507 kts | 114° |
| 2026-05-05 22:06 | 61.80047 | 7.72179 | 34971 ft | 507 kts | 114° |
| 2026-05-05 22:06 | 61.77404 | 7.86019 | 34968 ft | 507 kts | 114° |
| 2026-05-05 22:07 | 61.74757 | 7.99781 | 34979 ft | 507 kts | 115° |
| 2026-05-05 22:07 | 61.72085 | 8.13584 | 34978 ft | 507 kts | 115° |
| 2026-05-05 22:08 | 61.69416 | 8.27276 | 34983 ft | 507 kts | 115° |
| 2026-05-05 22:08 | 61.66717 | 8.41024 | 34977 ft | 507 kts | 115° |
| 2026-05-05 22:09 | 61.64000 | 8.54771 | 34986 ft | 509 kts | 115° |
| 2026-05-05 22:09 | 61.61266 | 8.68509 | 34983 ft | 514 kts | 115° |
| 2026-05-05 22:10 | 61.58485 | 8.82387 | 34973 ft | 515 kts | 115° |
| 2026-05-05 22:10 | 61.55692 | 8.96239 | 34979 ft | 515 kts | 116° |
| 2026-05-05 22:11 | 61.52901 | 9.09980 | 34978 ft | 514 kts | 116° |
| 2026-05-05 22:11 | 61.50075 | 9.23799 | 34973 ft | 517 kts | 116° |
| 2026-05-05 22:12 | 61.47219 | 9.37668 | 34966 ft | 518 kts | 116° |
| 2026-05-05 22:12 | 61.44366 | 9.51434 | 34968 ft | 518 kts | 116° |
| 2026-05-05 22:13 | 61.41482 | 9.65262 | 34967 ft | 518 kts | 116° |
| 2026-05-05 22:13 | 61.40033 | 9.72171 | 34866 ft | 516 kts | 116° |
| 2026-05-05 22:13 | 61.38595 | 9.79010 | 34191 ft | 513 kts | 116° |
| 2026-05-05 22:13 | 61.37152 | 9.85843 | 33083 ft | 516 kts | 117° |
| 2026-05-05 22:14 | 61.35691 | 9.92734 | 31893 ft | 522 kts | 117° |
| 2026-05-05 22:14 | 61.34219 | 9.99660 | 30900 ft | 523 kts | 118° |
| 2026-05-05 22:14 | 61.32740 | 10.06599 | 29969 ft | 524 kts | 118° |
| 2026-05-05 22:14 | 61.31281 | 10.13436 | 29725 ft | 506 kts | 119° |
| 2026-05-05 22:15 | 61.29895 | 10.19922 | 29584 ft | 488 kts | 119° |
| 2026-05-05 22:15 | 61.28532 | 10.26271 | 29441 ft | 472 kts | 119° |
| 2026-05-05 22:15 | 61.27206 | 10.32417 | 29317 ft | 458 kts | 120° |
| 2026-05-05 22:15 | 61.25915 | 10.38378 | 29060 ft | 448 kts | 120° |
| 2026-05-05 22:16 | 61.24626 | 10.44290 | 28366 ft | 450 kts | 120° |
| 2026-05-05 22:16 | 61.23106 | 10.49869 | 27967 ft | 436 kts | 135° |
| 2026-05-05 22:16 | 61.21006 | 10.54120 | 27578 ft | 409 kts | 156° |
| 2026-05-05 22:16 | 61.18535 | 10.56608 | 27095 ft | 383 kts | 175° |
| 2026-05-05 22:17 | 61.16032 | 10.57401 | 26617 ft | 358 kts | 192° |
| 2026-05-05 22:17 | 61.13622 | 10.56905 | 26165 ft | 342 kts | 202° |
| 2026-05-05 22:17 | 61.11299 | 10.56013 | 25725 ft | 338 kts | 203° |
| 2026-05-05 22:17 | 61.08997 | 10.55082 | 25292 ft | 336 kts | 203° |
| 2026-05-05 22:18 | 61.06704 | 10.54168 | 24857 ft | 335 kts | 203° |
| 2026-05-05 22:18 | 61.04418 | 10.53273 | 24415 ft | 334 kts | 202° |
| 2026-05-05 22:18 | 61.02133 | 10.52390 | 23979 ft | 333 kts | 202° |
| 2026-05-05 22:18 | 60.99852 | 10.51515 | 23542 ft | 332 kts | 202° |
| 2026-05-05 22:19 | 60.97611 | 10.50660 | 23047 ft | 330 kts | 202° |
| 2026-05-05 22:19 | 60.95359 | 10.49807 | 22621 ft | 326 kts | 201° |
| 2026-05-05 22:19 | 60.93137 | 10.48967 | 22200 ft | 323 kts | 201° |
| 2026-05-05 22:19 | 60.90932 | 10.48135 | 21747 ft | 319 kts | 202° |
| 2026-05-05 22:20 | 60.88753 | 10.47312 | 21335 ft | 316 kts | 201° |
| 2026-05-05 22:20 | 60.86593 | 10.46497 | 20929 ft | 314 kts | 201° |
| 2026-05-05 22:20 | 60.84443 | 10.45687 | 20527 ft | 313 kts | 200° |
| 2026-05-05 22:20 | 60.82333 | 10.44894 | 20117 ft | 312 kts | 200° |
| 2026-05-05 22:21 | 60.80198 | 10.44093 | 19693 ft | 311 kts | 199° |
| 2026-05-05 22:21 | 60.78059 | 10.43288 | 19177 ft | 315 kts | 199° |
| 2026-05-05 22:21 | 60.75915 | 10.42487 | 18884 ft | 310 kts | 198° |
| 2026-05-05 22:21 | 60.73795 | 10.41698 | 18509 ft | 309 kts | 197° |
| 2026-05-05 22:22 | 60.71672 | 10.40906 | 18064 ft | 310 kts | 197° |
| 2026-05-05 22:22 | 60.69553 | 10.40117 | 17621 ft | 309 kts | 196° |
| 2026-05-05 22:22 | 60.67440 | 10.39332 | 17192 ft | 307 kts | 196° |
| 2026-05-05 22:22 | 60.65365 | 10.38563 | 16805 ft | 306 kts | 196° |
| 2026-05-05 22:23 | 60.63268 | 10.37786 | 16358 ft | 305 kts | 196° |
| 2026-05-05 22:23 | 60.61182 | 10.37015 | 15968 ft | 303 kts | 196° |
| 2026-05-05 22:23 | 60.59107 | 10.36247 | 15548 ft | 302 kts | 196° |
| 2026-05-05 22:23 | 60.57037 | 10.35483 | 15133 ft | 301 kts | 195° |
| 2026-05-05 22:24 | 60.54977 | 10.34723 | 14711 ft | 300 kts | 195° |
| 2026-05-05 22:24 | 60.52920 | 10.33964 | 14293 ft | 299 kts | 195° |
| 2026-05-05 22:24 | 60.51563 | 10.33465 | 14008 ft | 298 kts | 195° |
| 2026-05-05 22:24 | 60.48862 | 10.32471 | 13407 ft | 297 kts | 194° |
| 2026-05-05 22:25 | 60.46835 | 10.31727 | 12967 ft | 294 kts | 194° |
| 2026-05-05 22:25 | 60.45476 | 10.31229 | 12692 ft | 293 kts | 194° |
| 2026-05-05 22:25 | 60.43495 | 10.30567 | 12242 ft | 292 kts | 191° |
| 2026-05-05 22:25 | 60.41470 | 10.30147 | 11912 ft | 293 kts | 188° |
| 2026-05-05 22:26 | 60.39443 | 10.29794 | 11530 ft | 292 kts | 188° |
| 2026-05-05 22:26 | 60.37425 | 10.29454 | 11157 ft | 289 kts | 187° |
| 2026-05-05 22:26 | 60.35421 | 10.29115 | 11024 ft | 288 kts | 187° |
| 2026-05-05 22:26 | 60.33425 | 10.28777 | 11004 ft | 288 kts | 187° |
| 2026-05-05 22:27 | 60.31423 | 10.28435 | 10940 ft | 288 kts | 188° |
| 2026-05-05 22:27 | 60.29429 | 10.28090 | 10518 ft | 286 kts | 187° |
| 2026-05-05 22:27 | 60.27455 | 10.27750 | 10107 ft | 283 kts | 187° |
| 2026-05-05 22:27 | 60.25522 | 10.27419 | 9698 ft | 281 kts | 187° |
| 2026-05-05 22:28 | 60.23583 | 10.27089 | 9258 ft | 278 kts | 187° |
| 2026-05-05 22:28 | 60.21670 | 10.26760 | 8830 ft | 271 kts | 187° |
| 2026-05-05 22:28 | 60.19820 | 10.26443 | 8502 ft | 262 kts | 186° |
| 2026-05-05 22:28 | 60.18028 | 10.26139 | 8175 ft | 255 kts | 186° |
| 2026-05-05 22:29 | 60.16269 | 10.25840 | 7867 ft | 253 kts | 186° |
| 2026-05-05 22:29 | 60.14508 | 10.25539 | 7558 ft | 253 kts | 186° |
| 2026-05-05 22:29 | 60.12773 | 10.25017 | 7242 ft | 251 kts | 196° |
| 2026-05-05 22:29 | 60.11118 | 10.23955 | 6945 ft | 249 kts | 201° |
| 2026-05-05 22:30 | 60.09512 | 10.22790 | 6690 ft | 248 kts | 201° |
| 2026-05-05 22:30 | 60.07891 | 10.21604 | 6429 ft | 248 kts | 201° |
| 2026-05-05 22:30 | 60.06271 | 10.20426 | 6164 ft | 247 kts | 201° |
| 2026-05-05 22:30 | 60.04656 | 10.19258 | 5901 ft | 245 kts | 201° |
| 2026-05-05 22:31 | 60.03036 | 10.18185 | 5625 ft | 245 kts | 194° |
| 2026-05-05 22:31 | 60.01338 | 10.17837 | 5372 ft | 246 kts | 182° |
| 2026-05-05 22:31 | 59.99625 | 10.17845 | 5189 ft | 247 kts | 180° |
| 2026-05-05 22:31 | 59.97909 | 10.17896 | 5001 ft | 247 kts | 180° |
| 2026-05-05 22:32 | 59.96188 | 10.17945 | 4818 ft | 247 kts | 180° |
| 2026-05-05 22:32 | 59.94466 | 10.17986 | 4633 ft | 247 kts | 180° |
| 2026-05-05 22:32 | 59.92765 | 10.18029 | 4450 ft | 247 kts | 179° |
| 2026-05-05 22:32 | 59.91066 | 10.18531 | 4259 ft | 247 kts | 165° |
| 2026-05-05 22:33 | 59.89489 | 10.19866 | 4073 ft | 247 kts | 146° |
| 2026-05-05 22:33 | 59.88323 | 10.22304 | 3881 ft | 245 kts | 117° |
| 2026-05-05 22:33 | 59.87968 | 10.25549 | 3700 ft | 241 kts | 82° |
| 2026-05-05 22:33 | 59.88443 | 10.28701 | 3536 ft | 237 kts | 64° |
| 2026-05-05 22:34 | 59.89123 | 10.31646 | 3349 ft | 238 kts | 62° |
| 2026-05-05 22:34 | 59.89830 | 10.34617 | 3161 ft | 237 kts | 62° |
| 2026-05-05 22:34 | 59.90530 | 10.37597 | 3000 ft | 236 kts | 63° |
| 2026-05-05 22:34 | 59.91222 | 10.40575 | 3102 ft | 237 kts | 63° |
| 2026-05-05 22:35 | 59.91910 | 10.43558 | 3242 ft | 236 kts | 63° |
| 2026-05-05 22:35 | 59.92580 | 10.46492 | 3359 ft | 229 kts | 63° |
| 2026-05-05 22:35 | 59.93236 | 10.49371 | 3483 ft | 228 kts | 63° |
| 2026-05-05 22:35 | 59.93883 | 10.52209 | 3519 ft | 228 kts | 63° |
| 2026-05-05 22:36 | 59.94539 | 10.55090 | 3510 ft | 228 kts | 63° |
| 2026-05-05 22:36 | 59.95193 | 10.57973 | 3516 ft | 228 kts | 63° |
| 2026-05-05 22:36 | 59.95846 | 10.60858 | 3517 ft | 228 kts | 63° |
| 2026-05-05 22:36 | 59.96499 | 10.63742 | 3512 ft | 228 kts | 64° |
| 2026-05-05 22:37 | 59.97154 | 10.66643 | 3514 ft | 229 kts | 65° |
| 2026-05-05 22:37 | 59.97801 | 10.69509 | 3505 ft | 229 kts | 65° |
| 2026-05-05 22:37 | 59.98456 | 10.72415 | 3507 ft | 229 kts | 65° |
| 2026-05-05 22:37 | 59.99111 | 10.75327 | 3506 ft | 229 kts | 65° |
| 2026-05-05 22:38 | 59.99764 | 10.78229 | 3507 ft | 229 kts | 65° |
| 2026-05-05 22:38 | 60.00418 | 10.81144 | 3509 ft | 229 kts | 65° |
| 2026-05-05 22:38 | 60.01069 | 10.84050 | 3507 ft | 229 kts | 65° |
| 2026-05-05 22:38 | 60.01712 | 10.86922 | 3503 ft | 229 kts | 64° |
| 2026-05-05 22:39 | 60.02360 | 10.89825 | 3511 ft | 229 kts | 64° |
| 2026-05-05 22:39 | 60.03012 | 10.92745 | 3496 ft | 229 kts | 64° |
| 2026-05-05 22:39 | 60.03660 | 10.95650 | 3493 ft | 229 kts | 64° |
| 2026-05-05 22:39 | 60.04490 | 10.98258 | 3511 ft | 214 kts | 39° |
| 2026-05-05 22:40 | 60.05655 | 10.99868 | 3529 ft | 200 kts | 26° |
| 2026-05-05 22:40 | 60.06924 | 11.00775 | 3274 ft | 187 kts | 13° |
| 2026-05-05 22:40 | 60.08142 | 11.01401 | 2927 ft | 175 kts | 13° |
| 2026-05-05 22:40 | 60.09264 | 11.02055 | 2701 ft | 159 kts | 14° |
| 2026-05-05 22:41 | 60.10284 | 11.02647 | 2468 ft | 146 kts | 13° |
| 2026-05-05 22:41 | 60.11217 | 11.03181 | 2293 ft | 135 kts | 13° |
| 2026-05-05 22:41 | 60.12109 | 11.03693 | 2089 ft | 136 kts | 13° |
| 2026-05-05 22:41 | 60.13025 | 11.04219 | 1895 ft | 137 kts | 13° |
| 2026-05-05 22:42 | 60.13949 | 11.04750 | 1701 ft | 138 kts | 12° |
| 2026-05-05 22:42 | 60.14879 | 11.05258 | 1507 ft | 140 kts | 12° |
| 2026-05-05 22:42 | 60.15813 | 11.05808 | 1277 ft | 140 kts | 15° |
| 2026-05-05 22:42 | 60.16743 | 11.06364 | 1035 ft | 139 kts | 15° |
| 2026-05-05 22:43 | 60.17653 | 11.06896 | 887 ft | 139 kts | 14° |
| 2026-05-05 22:43 | 60.18583 | 11.07413 | 724 ft | 138 kts | 15° |
| 2026-05-05 22:43 | 60.19468 | 11.07913 | 687 ft | 116 kts | 15° |
| 2026-05-05 22:43 | 60.20064 | 11.08285 | 689 ft | 58 kts | 19° |
| 2026-05-05 22:44 | 60.20241 | 11.08539 | 692 ft | 13 kts | 68° |
| 2026-05-05 22:44 | 60.20245 | 11.08645 | 697 ft | 0 kts | 98° |
| 2026-05-05 22:44 | 60.20245 | 11.08646 | 697 ft | 0 kts | 98° |
| 2026-05-05 22:44 | 60.20245 | 11.08648 | 697 ft | 0 kts | 99° |
| 2026-05-05 22:45 | 60.20217 | 11.08714 | 691 ft | 10 kts | 162° |
| 2026-05-05 22:45 | 60.20146 | 11.08708 | 692 ft | 10 kts | 190° |
| 2026-05-05 22:45 | 60.20075 | 11.08671 | 689 ft | 11 kts | 196° |
| 2026-05-05 22:45 | 60.20000 | 11.08628 | 691 ft | 14 kts | 195° |
| 2026-05-05 22:46 | 60.19906 | 11.08592 | 689 ft | 13 kts | 175° |
| 2026-05-05 22:46 | 60.19824 | 11.08660 | 692 ft | 13 kts | 173° |
| 2026-05-05 22:46 | 60.19695 | 11.08625 | 691 ft | 24 kts | 191° |
| 2026-05-05 22:46 | 60.19520 | 11.08520 | 695 ft | 27 kts | 196° |
| 2026-05-05 22:47 | 60.19350 | 11.08421 | 690 ft | 25 kts | 196° |
| 2026-05-05 22:47 | 60.19228 | 11.08352 | 687 ft | 14 kts | 186° |
| 2026-05-05 22:47 | 60.19164 | 11.08384 | 686 ft | 1 kts | 146° |
| 2026-05-05 22:47 | 60.19149 | 11.08407 | 690 ft | 0 kts | 141° |
| 2026-05-05 22:48 | 60.19140 | 11.08528 | 681 ft | 0 kts | 106° |